sensor_id;sensor_type;location;lat;lon;timestamp;temperature;humidity
1329;DHT22;658;48.820;9.354;2023-04-03T00:02:36;21.80;45.70
1329;DHT22;658;48.820;9.354;2023-04-03T00:06:36;21.80;45.60
1329;DHT22;658;48.820;9.354;2023-04-03T00:10:37;21.80;45.50
1329;DHT22;658;48.820;9.354;2023-04-03T00:14:38;21.80;46.10
1329;DHT22;658;48.820;9.354;2023-04-03T00:18:41;21.80;45.40
1329;DHT22;658;48.820;9.354;2023-04-03T00:22:42;21.90;45.60
1329;DHT22;658;48.820;9.354;2023-04-03T00:26:45;21.90;45.60
1329;DHT22;658;48.820;9.354;2023-04-03T00:30:49;21.90;45.40
1329;DHT22;658;48.820;9.354;2023-04-03T00:34:50;21.90;45.30
1329;DHT22;658;48.820;9.354;2023-04-03T00:38:51;21.90;45.20
1329;DHT22;658;48.820;9.354;2023-04-03T00:42:58;22.00;45.20
1329;DHT22;658;48.820;9.354;2023-04-03T00:46:59;22.00;45.30
1329;DHT22;658;48.820;9.354;2023-04-03T00:51:04;22.00;45.20
1329;DHT22;658;48.820;9.354;2023-04-03T00:55:08;22.00;45.10
1329;DHT22;658;48.820;9.354;2023-04-03T00:59:22;22.00;45.00
1329;DHT22;658;48.820;9.354;2023-04-03T01:03:26;22.00;44.80
1329;DHT22;658;48.820;9.354;2023-04-03T01:07:29;22.00;44.80
1329;DHT22;658;48.820;9.354;2023-04-03T01:11:30;22.00;44.80
1329;DHT22;658;48.820;9.354;2023-04-03T01:15:31;22.00;44.70
1329;DHT22;658;48.820;9.354;2023-04-03T01:19:47;22.00;44.60
1329;DHT22;658;48.820;9.354;2023-04-03T01:28:03;22.10;44.60
1329;DHT22;658;48.820;9.354;2023-04-03T01:32:04;22.10;44.40
1329;DHT22;658;48.820;9.354;2023-04-03T01:36:05;22.10;44.30
1329;DHT22;658;48.820;9.354;2023-04-03T01:40:07;22.10;44.30
1329;DHT22;658;48.820;9.354;2023-04-03T01:44:08;22.10;44.30
1329;DHT22;658;48.820;9.354;2023-04-03T01:48:11;22.10;44.10
1329;DHT22;658;48.820;9.354;2023-04-03T01:52:11;22.10;44.00
1329;DHT22;658;48.820;9.354;2023-04-03T01:56:19;22.10;44.00
1329;DHT22;658;48.820;9.354;2023-04-03T02:00:20;22.10;43.90
1329;DHT22;658;48.820;9.354;2023-04-03T02:04:21;22.10;43.80
1329;DHT22;658;48.820;9.354;2023-04-03T02:08:22;22.10;43.80
1329;DHT22;658;48.820;9.354;2023-04-03T02:12:22;22.10;43.70
1329;DHT22;658;48.820;9.354;2023-04-03T02:16:23;22.10;43.60
1329;DHT22;658;48.820;9.354;2023-04-03T02:20:23;22.10;43.60
1329;DHT22;658;48.820;9.354;2023-04-03T02:24:24;22.10;43.60
1329;DHT22;658;48.820;9.354;2023-04-03T02:28:27;22.10;43.50
1329;DHT22;658;48.820;9.354;2023-04-03T02:32:30;22.10;43.50
1329;DHT22;658;48.820;9.354;2023-04-03T02:36:30;22.10;43.40
1329;DHT22;658;48.820;9.354;2023-04-03T02:40:31;22.10;43.40
1329;DHT22;658;48.820;9.354;2023-04-03T02:44:31;22.10;43.40
1329;DHT22;658;48.820;9.354;2023-04-03T02:48:32;22.10;43.20
1329;DHT22;658;48.820;9.354;2023-04-03T02:52:33;22.10;43.10
1329;DHT22;658;48.820;9.354;2023-04-03T02:56:33;22.10;43.20
1329;DHT22;658;48.820;9.354;2023-04-03T03:00:34;22.10;43.00
1329;DHT22;658;48.820;9.354;2023-04-03T03:04:35;22.10;43.00
1329;DHT22;658;48.820;9.354;2023-04-03T03:08:36;22.10;43.00
1329;DHT22;658;48.820;9.354;2023-04-03T03:12:36;22.10;42.90
1329;DHT22;658;48.820;9.354;2023-04-03T03:16:37;22.10;43.00
1329;DHT22;658;48.820;9.354;2023-04-03T03:20:37;22.00;42.90
1329;DHT22;658;48.820;9.354;2023-04-03T03:24:38;22.00;42.70
1329;DHT22;658;48.820;9.354;2023-04-03T03:28:41;22.00;42.70
1329;DHT22;658;48.820;9.354;2023-04-03T03:32:42;22.00;42.70
1329;DHT22;658;48.820;9.354;2023-04-03T03:36:42;22.00;42.70
1329;DHT22;658;48.820;9.354;2023-04-03T03:40:43;22.00;42.70
1329;DHT22;658;48.820;9.354;2023-04-03T03:44:43;22.00;42.50
1329;DHT22;658;48.820;9.354;2023-04-03T03:48:49;22.00;42.50
1329;DHT22;658;48.820;9.354;2023-04-03T03:52:52;22.00;42.60
1329;DHT22;658;48.820;9.354;2023-04-03T03:56:54;22.00;42.50
1329;DHT22;658;48.820;9.354;2023-04-03T04:00:55;22.00;42.50
1329;DHT22;658;48.820;9.354;2023-04-03T04:04:56;22.00;42.40
1329;DHT22;658;48.820;9.354;2023-04-03T04:08:56;22.00;42.50
1329;DHT22;658;48.820;9.354;2023-04-03T04:12:57;22.00;42.40
1329;DHT22;658;48.820;9.354;2023-04-03T04:16:57;22.00;42.40
1329;DHT22;658;48.820;9.354;2023-04-03T04:20:58;22.00;42.30
1329;DHT22;658;48.820;9.354;2023-04-03T04:24:59;22.00;42.40
1329;DHT22;658;48.820;9.354;2023-04-03T04:28:59;22.00;42.30
1329;DHT22;658;48.820;9.354;2023-04-03T04:33:02;22.00;42.30
1329;DHT22;658;48.820;9.354;2023-04-03T04:37:03;21.90;42.20
1329;DHT22;658;48.820;9.354;2023-04-03T04:41:04;21.90;42.20
1329;DHT22;658;48.820;9.354;2023-04-03T04:45:05;22.00;42.30
1329;DHT22;658;48.820;9.354;2023-04-03T04:49:06;21.90;42.10
1329;DHT22;658;48.820;9.354;2023-04-03T04:53:06;21.90;42.10
1329;DHT22;658;48.820;9.354;2023-04-03T04:57:07;21.90;42.00
1329;DHT22;658;48.820;9.354;2023-04-03T05:01:10;21.90;42.00
1329;DHT22;658;48.820;9.354;2023-04-03T05:05:11;21.90;42.00
1329;DHT22;658;48.820;9.354;2023-04-03T05:09:11;21.90;42.00
1329;DHT22;658;48.820;9.354;2023-04-03T05:13:13;21.90;41.90
1329;DHT22;658;48.820;9.354;2023-04-03T05:17:13;21.90;41.90
1329;DHT22;658;48.820;9.354;2023-04-03T05:21:14;21.90;41.90
1329;DHT22;658;48.820;9.354;2023-04-03T05:25:18;21.90;41.90
1329;DHT22;658;48.820;9.354;2023-04-03T05:29:19;21.90;42.00
1329;DHT22;658;48.820;9.354;2023-04-03T05:33:19;21.90;42.00
1329;DHT22;658;48.820;9.354;2023-04-03T05:37:20;21.90;42.00
1329;DHT22;658;48.820;9.354;2023-04-03T05:41:21;21.90;42.10
1329;DHT22;658;48.820;9.354;2023-04-03T05:45:22;21.80;42.10
1329;DHT22;658;48.820;9.354;2023-04-03T05:49:22;21.90;42.20
1329;DHT22;658;48.820;9.354;2023-04-03T05:53:29;21.90;42.20
1329;DHT22;658;48.820;9.354;2023-04-03T05:57:31;21.90;42.30
1329;DHT22;658;48.820;9.354;2023-04-03T06:01:31;21.90;42.40
1329;DHT22;658;48.820;9.354;2023-04-03T06:05:32;21.90;42.60
1329;DHT22;658;48.820;9.354;2023-04-03T06:09:33;21.90;42.80
1329;DHT22;658;48.820;9.354;2023-04-03T06:13:33;21.90;42.60
1329;DHT22;658;48.820;9.354;2023-04-03T06:17:36;21.90;42.50
1329;DHT22;658;48.820;9.354;2023-04-03T06:21:38;21.90;42.40
1329;DHT22;658;48.820;9.354;2023-04-03T06:25:38;21.90;42.30
1329;DHT22;658;48.820;9.354;2023-04-03T06:29:39;21.90;42.20
1329;DHT22;658;48.820;9.354;2023-04-03T06:33:40;22.00;42.30
1329;DHT22;658;48.820;9.354;2023-04-03T06:37:43;22.00;42.30
1329;DHT22;658;48.820;9.354;2023-04-03T06:41:44;22.00;42.20
1329;DHT22;658;48.820;9.354;2023-04-03T06:45:45;22.00;42.20
1329;DHT22;658;48.820;9.354;2023-04-03T06:49:45;22.00;42.20
1329;DHT22;658;48.820;9.354;2023-04-03T06:53:47;22.00;42.10
1329;DHT22;658;48.820;9.354;2023-04-03T06:57:48;22.00;42.10
1329;DHT22;658;48.820;9.354;2023-04-03T07:01:49;22.00;42.10
1329;DHT22;658;48.820;9.354;2023-04-03T07:05:49;22.10;42.00
1329;DHT22;658;48.820;9.354;2023-04-03T07:09:50;22.10;42.20
1329;DHT22;658;48.820;9.354;2023-04-03T07:13:51;22.10;41.90
1329;DHT22;658;48.820;9.354;2023-04-03T07:17:52;22.10;41.90
1329;DHT22;658;48.820;9.354;2023-04-03T07:21:55;22.10;41.90
1329;DHT22;658;48.820;9.354;2023-04-03T07:25:56;22.10;41.80
1329;DHT22;658;48.820;9.354;2023-04-03T07:29:57;22.20;41.80
1329;DHT22;658;48.820;9.354;2023-04-03T07:33:57;22.20;41.80
1329;DHT22;658;48.820;9.354;2023-04-03T07:37:58;22.20;41.70
1329;DHT22;658;48.820;9.354;2023-04-03T07:41:58;22.20;41.60
1329;DHT22;658;48.820;9.354;2023-04-03T07:46:00;22.30;41.60
1329;DHT22;658;48.820;9.354;2023-04-03T07:50:00;22.30;41.50
1329;DHT22;658;48.820;9.354;2023-04-03T07:54:01;22.30;41.40
1329;DHT22;658;48.820;9.354;2023-04-03T07:58:02;22.30;41.40
1329;DHT22;658;48.820;9.354;2023-04-03T08:02:03;22.40;41.30
1329;DHT22;658;48.820;9.354;2023-04-03T08:06:07;22.40;41.30
1329;DHT22;658;48.820;9.354;2023-04-03T08:10:10;22.40;41.20
1329;DHT22;658;48.820;9.354;2023-04-03T08:14:12;22.50;41.20
1329;DHT22;658;48.820;9.354;2023-04-03T08:18:17;22.50;41.20
1329;DHT22;658;48.820;9.354;2023-04-03T08:22:18;22.50;41.10
1329;DHT22;658;48.820;9.354;2023-04-03T08:26:20;22.60;41.10
1329;DHT22;658;48.820;9.354;2023-04-03T08:30:21;22.60;41.00
1329;DHT22;658;48.820;9.354;2023-04-03T08:34:22;22.60;40.80
1329;DHT22;658;48.820;9.354;2023-04-03T08:38:23;22.60;40.70
1329;DHT22;658;48.820;9.354;2023-04-03T08:51:19;22.70;40.60
1329;DHT22;658;48.820;9.354;2023-04-03T08:55:27;22.70;40.50
1329;DHT22;658;48.820;9.354;2023-04-03T08:59:33;22.70;40.40
1329;DHT22;658;48.820;9.354;2023-04-03T09:03:38;22.70;40.20
1329;DHT22;658;48.820;9.354;2023-04-03T09:07:44;22.70;40.20
1329;DHT22;658;48.820;9.354;2023-04-03T09:15:56;22.70;40.10
1329;DHT22;658;48.820;9.354;2023-04-03T09:20:17;22.70;40.00
1329;DHT22;658;48.820;9.354;2023-04-03T09:24:22;22.70;39.80
1329;DHT22;658;48.820;9.354;2023-04-03T09:28:33;22.70;39.70
1329;DHT22;658;48.820;9.354;2023-04-03T09:32:38;22.70;39.70
1329;DHT22;658;48.820;9.354;2023-04-03T09:36:51;22.70;39.60
1329;DHT22;658;48.820;9.354;2023-04-03T09:41:07;22.80;39.60
1329;DHT22;658;48.820;9.354;2023-04-03T09:49:25;22.80;39.50
1329;DHT22;658;48.820;9.354;2023-04-03T09:53:38;22.80;39.50
1329;DHT22;658;48.820;9.354;2023-04-03T09:57:39;22.80;39.50
1329;DHT22;658;48.820;9.354;2023-04-03T10:01:43;22.80;39.40
1329;DHT22;658;48.820;9.354;2023-04-03T10:05:44;22.90;39.40
1329;DHT22;658;48.820;9.354;2023-04-03T10:09:58;22.90;39.30
1329;DHT22;658;48.820;9.354;2023-04-03T10:14:00;22.90;39.30
1329;DHT22;658;48.820;9.354;2023-04-03T10:18:21;22.80;39.30
1329;DHT22;658;48.820;9.354;2023-04-03T10:22:49;22.90;39.30
1329;DHT22;658;48.820;9.354;2023-04-03T10:26:57;22.80;39.20
1329;DHT22;658;48.820;9.354;2023-04-03T10:39:59;22.80;39.20
1329;DHT22;658;48.820;9.354;2023-04-03T10:44:31;22.80;39.10
1329;DHT22;658;48.820;9.354;2023-04-03T10:57:12;22.80;39.00
1329;DHT22;658;48.820;9.354;2023-04-03T11:01:18;22.80;39.00
1329;DHT22;658;48.820;9.354;2023-04-03T11:05:41;22.80;38.90
1329;DHT22;658;48.820;9.354;2023-04-03T11:09:50;22.80;38.90
1329;DHT22;658;48.820;9.354;2023-04-03T11:14:03;22.80;38.90
1329;DHT22;658;48.820;9.354;2023-04-03T11:18:15;22.80;38.80
1329;DHT22;658;48.820;9.354;2023-04-03T11:22:34;22.80;38.70
1329;DHT22;658;48.820;9.354;2023-04-03T11:26:40;22.80;38.60
1329;DHT22;658;48.820;9.354;2023-04-03T11:34:56;22.80;38.60
1329;DHT22;658;48.820;9.354;2023-04-03T11:43:56;22.80;38.60
1329;DHT22;658;48.820;9.354;2023-04-03T11:56:38;22.80;38.60
1329;DHT22;658;48.820;9.354;2023-04-03T12:00:52;22.80;38.70
1329;DHT22;658;48.820;9.354;2023-04-03T12:05:29;22.80;38.70
1329;DHT22;658;48.820;9.354;2023-04-03T12:09:34;22.80;38.70
1329;DHT22;658;48.820;9.354;2023-04-03T12:13:40;22.80;38.70
1329;DHT22;658;48.820;9.354;2023-04-03T12:17:42;22.80;38.80
1329;DHT22;658;48.820;9.354;2023-04-03T12:25:51;22.80;38.90
1329;DHT22;658;48.820;9.354;2023-04-03T12:30:35;22.80;38.90
1329;DHT22;658;48.820;9.354;2023-04-03T12:44:13;22.80;38.80
1329;DHT22;658;48.820;9.354;2023-04-03T12:48:24;22.80;38.50
1329;DHT22;658;48.820;9.354;2023-04-03T12:56:32;22.90;38.30
1329;DHT22;658;48.820;9.354;2023-04-03T13:00:35;22.90;38.10
1329;DHT22;658;48.820;9.354;2023-04-03T13:04:39;22.90;38.00
1329;DHT22;658;48.820;9.354;2023-04-03T13:08:48;22.90;37.90
1329;DHT22;658;48.820;9.354;2023-04-03T13:12:55;22.90;38.40
1329;DHT22;658;48.820;9.354;2023-04-03T13:17:06;22.80;37.70
1329;DHT22;658;48.820;9.354;2023-04-03T13:21:40;22.80;37.70
1329;DHT22;658;48.820;9.354;2023-04-03T13:25:43;22.90;37.70
1329;DHT22;658;48.820;9.354;2023-04-03T13:29:53;22.90;37.60
1329;DHT22;658;48.820;9.354;2023-04-03T13:34:18;22.90;37.70
1329;DHT22;658;48.820;9.354;2023-04-03T13:42:27;23.00;37.60
1329;DHT22;658;48.820;9.354;2023-04-03T13:46:30;23.00;37.50
1329;DHT22;658;48.820;9.354;2023-04-03T13:50:31;23.00;37.50
1329;DHT22;658;48.820;9.354;2023-04-03T13:54:38;23.00;37.50
1329;DHT22;658;48.820;9.354;2023-04-03T13:58:39;23.00;37.40
1329;DHT22;658;48.820;9.354;2023-04-03T14:02:40;23.00;37.30
1329;DHT22;658;48.820;9.354;2023-04-03T14:06:41;23.00;37.20
1329;DHT22;658;48.820;9.354;2023-04-03T14:10:42;23.10;37.30
1329;DHT22;658;48.820;9.354;2023-04-03T14:14:43;23.10;37.20
1329;DHT22;658;48.820;9.354;2023-04-03T14:18:45;23.20;37.30
1329;DHT22;658;48.820;9.354;2023-04-03T14:22:46;23.30;36.80
1329;DHT22;658;48.820;9.354;2023-04-03T14:26:47;23.30;36.60
1329;DHT22;658;48.820;9.354;2023-04-03T14:30:51;23.30;36.60
1329;DHT22;658;48.820;9.354;2023-04-03T14:34:52;23.30;36.60
1329;DHT22;658;48.820;9.354;2023-04-03T14:38:54;23.30;36.70
1329;DHT22;658;48.820;9.354;2023-04-03T14:42:55;23.20;36.70
1329;DHT22;658;48.820;9.354;2023-04-03T14:46:57;23.20;36.70
1329;DHT22;658;48.820;9.354;2023-04-03T14:51:00;23.20;36.70
1329;DHT22;658;48.820;9.354;2023-04-03T14:55:03;23.20;36.80
1329;DHT22;658;48.820;9.354;2023-04-03T14:59:10;23.20;36.70
1329;DHT22;658;48.820;9.354;2023-04-03T15:03:21;23.20;36.70
1329;DHT22;658;48.820;9.354;2023-04-03T15:07:26;23.20;37.20
1329;DHT22;658;48.820;9.354;2023-04-03T15:11:27;23.20;36.70
1329;DHT22;658;48.820;9.354;2023-04-03T15:15:29;23.10;36.70
1329;DHT22;658;48.820;9.354;2023-04-03T15:19:36;23.10;36.80
1329;DHT22;658;48.820;9.354;2023-04-03T15:23:37;23.10;36.90
1329;DHT22;658;48.820;9.354;2023-04-03T15:27:38;23.10;36.80
1329;DHT22;658;48.820;9.354;2023-04-03T15:31:43;23.10;36.90
1329;DHT22;658;48.820;9.354;2023-04-03T15:35:43;23.10;37.00
1329;DHT22;658;48.820;9.354;2023-04-03T15:39:44;23.10;37.00
1329;DHT22;658;48.820;9.354;2023-04-03T15:43:44;23.20;37.10
1329;DHT22;658;48.820;9.354;2023-04-03T15:47:45;23.20;36.90
1329;DHT22;658;48.820;9.354;2023-04-03T15:51:46;23.30;36.90
1329;DHT22;658;48.820;9.354;2023-04-03T15:55:46;23.30;37.20
1329;DHT22;658;48.820;9.354;2023-04-03T15:59:47;23.30;37.00
1329;DHT22;658;48.820;9.354;2023-04-03T16:03:47;23.30;36.90
1329;DHT22;658;48.820;9.354;2023-04-03T16:07:51;23.30;36.90
1329;DHT22;658;48.820;9.354;2023-04-03T16:11:54;23.30;36.90
1329;DHT22;658;48.820;9.354;2023-04-03T16:15:57;23.30;36.80
1329;DHT22;658;48.820;9.354;2023-04-03T16:19:57;23.30;36.80
1329;DHT22;658;48.820;9.354;2023-04-03T16:23:59;23.30;36.80
1329;DHT22;658;48.820;9.354;2023-04-03T16:28:00;23.30;36.70
1329;DHT22;658;48.820;9.354;2023-04-03T16:32:02;23.30;36.70
1329;DHT22;658;48.820;9.354;2023-04-03T16:36:05;23.30;37.20
1329;DHT22;658;48.820;9.354;2023-04-03T16:40:07;23.20;36.90
1329;DHT22;658;48.820;9.354;2023-04-03T16:44:10;23.20;36.90
1329;DHT22;658;48.820;9.354;2023-04-03T16:48:11;23.20;36.80
1329;DHT22;658;48.820;9.354;2023-04-03T16:52:12;23.20;36.80
1329;DHT22;658;48.820;9.354;2023-04-03T16:56:15;23.20;36.80
1329;DHT22;658;48.820;9.354;2023-04-03T17:00:16;23.20;36.80
1329;DHT22;658;48.820;9.354;2023-04-03T17:04:17;23.10;36.80
1329;DHT22;658;48.820;9.354;2023-04-03T17:08:17;23.20;36.90
1329;DHT22;658;48.820;9.354;2023-04-03T17:12:18;23.20;36.90
1329;DHT22;658;48.820;9.354;2023-04-03T17:16:20;23.10;36.90
1329;DHT22;658;48.820;9.354;2023-04-03T17:20:20;23.10;36.90
1329;DHT22;658;48.820;9.354;2023-04-03T17:24:21;23.10;36.90
1329;DHT22;658;48.820;9.354;2023-04-03T17:28:22;23.00;37.10
1329;DHT22;658;48.820;9.354;2023-04-03T17:32:27;23.00;37.50
1329;DHT22;658;48.820;9.354;2023-04-03T17:36:32;23.00;37.70
1329;DHT22;658;48.820;9.354;2023-04-03T17:40:32;23.00;37.80
1329;DHT22;658;48.820;9.354;2023-04-03T17:44:35;23.00;37.80
1329;DHT22;658;48.820;9.354;2023-04-03T17:48:39;23.00;37.80
1329;DHT22;658;48.820;9.354;2023-04-03T17:52:40;23.00;37.80
1329;DHT22;658;48.820;9.354;2023-04-03T17:56:40;23.00;37.80
1329;DHT22;658;48.820;9.354;2023-04-03T18:00:47;23.00;37.70
1329;DHT22;658;48.820;9.354;2023-04-03T18:04:51;22.90;36.50
1329;DHT22;658;48.820;9.354;2023-04-03T18:08:56;22.90;37.80
1329;DHT22;658;48.820;9.354;2023-04-03T18:12:57;22.80;37.20
1329;DHT22;658;48.820;9.354;2023-04-03T18:17:00;22.80;37.20
1329;DHT22;658;48.820;9.354;2023-04-03T18:21:01;22.80;37.30
1329;DHT22;658;48.820;9.354;2023-04-03T18:25:02;22.70;37.30
1329;DHT22;658;48.820;9.354;2023-04-03T18:29:05;22.70;37.30
1329;DHT22;658;48.820;9.354;2023-04-03T18:33:08;22.70;37.40
1329;DHT22;658;48.820;9.354;2023-04-03T18:37:09;22.60;37.80
1329;DHT22;658;48.820;9.354;2023-04-03T18:41:09;22.60;37.70
1329;DHT22;658;48.820;9.354;2023-04-03T18:45:12;22.60;38.10
1329;DHT22;658;48.820;9.354;2023-04-03T18:49:19;22.60;38.50
1329;DHT22;658;48.820;9.354;2023-04-03T18:53:20;22.60;38.20
1329;DHT22;658;48.820;9.354;2023-04-03T18:57:22;22.60;38.20
1329;DHT22;658;48.820;9.354;2023-04-03T19:01:23;22.60;38.20
1329;DHT22;658;48.820;9.354;2023-04-03T19:14:52;22.60;38.40
1329;DHT22;658;48.820;9.354;2023-04-03T19:18:55;22.70;38.50
1329;DHT22;658;48.820;9.354;2023-04-03T19:22:58;22.70;38.60
1329;DHT22;658;48.820;9.354;2023-04-03T19:27:14;22.70;38.40
1329;DHT22;658;48.820;9.354;2023-04-03T19:31:47;22.70;38.60
1329;DHT22;658;48.820;9.354;2023-04-03T19:40:46;22.70;38.60
1329;DHT22;658;48.820;9.354;2023-04-03T19:44:47;22.70;38.10
1329;DHT22;658;48.820;9.354;2023-04-03T19:48:49;22.70;38.50
1329;DHT22;658;48.820;9.354;2023-04-03T19:52:52;22.80;38.60
1329;DHT22;658;48.820;9.354;2023-04-03T19:56:53;22.80;38.50
1329;DHT22;658;48.820;9.354;2023-04-03T20:00:55;22.80;38.40
1329;DHT22;658;48.820;9.354;2023-04-03T20:04:56;22.70;38.50
1329;DHT22;658;48.820;9.354;2023-04-03T20:08:57;22.70;38.50
1329;DHT22;658;48.820;9.354;2023-04-03T20:12:58;22.70;39.10
1329;DHT22;658;48.820;9.354;2023-04-03T20:16:59;22.70;38.50
1329;DHT22;658;48.820;9.354;2023-04-03T20:21:06;22.70;38.40
1329;DHT22;658;48.820;9.354;2023-04-03T20:25:11;22.70;38.40
1329;DHT22;658;48.820;9.354;2023-04-03T20:29:12;22.70;38.50
1329;DHT22;658;48.820;9.354;2023-04-03T20:33:14;22.70;38.30
1329;DHT22;658;48.820;9.354;2023-04-03T20:37:14;22.80;38.30
1329;DHT22;658;48.820;9.354;2023-04-03T20:41:20;22.70;38.20
1329;DHT22;658;48.820;9.354;2023-04-03T20:45:21;22.80;38.30
1329;DHT22;658;48.820;9.354;2023-04-03T20:49:22;22.80;38.20
1329;DHT22;658;48.820;9.354;2023-04-03T20:53:26;22.80;38.20
1329;DHT22;658;48.820;9.354;2023-04-03T20:57:30;22.80;38.20
1329;DHT22;658;48.820;9.354;2023-04-03T21:01:31;22.70;38.20
1329;DHT22;658;48.820;9.354;2023-04-03T21:05:36;22.70;38.20
1329;DHT22;658;48.820;9.354;2023-04-03T21:19:11;22.60;38.00
1329;DHT22;658;48.820;9.354;2023-04-03T21:23:15;22.50;38.00
1329;DHT22;658;48.820;9.354;2023-04-03T21:27:16;22.50;37.90
1329;DHT22;658;48.820;9.354;2023-04-03T21:31:22;22.40;37.80
1329;DHT22;658;48.820;9.354;2023-04-03T21:35:22;22.40;37.90
1329;DHT22;658;48.820;9.354;2023-04-03T21:39:25;22.30;37.80
1329;DHT22;658;48.820;9.354;2023-04-03T21:43:26;22.30;37.90
1329;DHT22;658;48.820;9.354;2023-04-03T21:47:30;22.30;37.90
1329;DHT22;658;48.820;9.354;2023-04-03T21:51:30;22.20;37.80
1329;DHT22;658;48.820;9.354;2023-04-03T21:55:32;22.20;37.80
1329;DHT22;658;48.820;9.354;2023-04-03T21:59:33;22.10;37.70
1329;DHT22;658;48.820;9.354;2023-04-03T22:03:37;22.10;37.80
1329;DHT22;658;48.820;9.354;2023-04-03T22:07:42;22.10;37.80
1329;DHT22;658;48.820;9.354;2023-04-03T22:11:42;22.00;37.80
1329;DHT22;658;48.820;9.354;2023-04-03T22:15:50;22.00;37.80
1329;DHT22;658;48.820;9.354;2023-04-03T22:19:51;22.00;37.80
1329;DHT22;658;48.820;9.354;2023-04-03T22:23:54;22.00;37.80
1329;DHT22;658;48.820;9.354;2023-04-03T22:27:55;22.00;37.90
1329;DHT22;658;48.820;9.354;2023-04-03T22:31:57;21.90;37.80
1329;DHT22;658;48.820;9.354;2023-04-03T22:35:58;21.90;37.80
1329;DHT22;658;48.820;9.354;2023-04-03T22:40:01;21.90;37.80
1329;DHT22;658;48.820;9.354;2023-04-03T22:44:02;21.90;37.70
1329;DHT22;658;48.820;9.354;2023-04-03T22:48:02;21.90;37.70
1329;DHT22;658;48.820;9.354;2023-04-03T22:52:07;22.00;37.80
1329;DHT22;658;48.820;9.354;2023-04-03T22:56:07;21.90;37.70
1329;DHT22;658;48.820;9.354;2023-04-03T23:00:10;21.90;37.70
1329;DHT22;658;48.820;9.354;2023-04-03T23:04:10;21.90;37.80
1329;DHT22;658;48.820;9.354;2023-04-03T23:08:14;22.00;37.80
1329;DHT22;658;48.820;9.354;2023-04-03T23:12:14;22.00;37.90
1329;DHT22;658;48.820;9.354;2023-04-03T23:16:15;22.00;37.80
1329;DHT22;658;48.820;9.354;2023-04-03T23:20:16;22.00;38.00
1329;DHT22;658;48.820;9.354;2023-04-03T23:24:19;22.00;37.80
1329;DHT22;658;48.820;9.354;2023-04-03T23:28:22;22.10;38.10
1329;DHT22;658;48.820;9.354;2023-04-03T23:32:23;22.10;38.00
1329;DHT22;658;48.820;9.354;2023-04-03T23:36:24;22.10;37.90
1329;DHT22;658;48.820;9.354;2023-04-03T23:40:24;22.10;37.80
1329;DHT22;658;48.820;9.354;2023-04-03T23:44:25;22.10;37.90
1329;DHT22;658;48.820;9.354;2023-04-03T23:48:27;22.10;37.80
1329;DHT22;658;48.820;9.354;2023-04-03T23:52:28;22.10;37.70
1329;DHT22;658;48.820;9.354;2023-04-03T23:56:29;22.10;37.70
